createdAt,value
2023-02-06T00:01:57.556Z,3.45
2023-02-06T00:04:25.714Z,2.75
2023-02-06T00:06:53.848Z,2.65
2023-02-06T00:09:21.306Z,2.60
2023-02-06T00:11:49.125Z,2.47
2023-02-06T00:14:16.940Z,3.55
2023-02-06T00:16:44.633Z,2.80
2023-02-06T00:19:12.759Z,2.25
2023-02-06T00:21:41.002Z,2.70
2023-02-06T00:24:09.189Z,2.20
2023-02-06T00:26:36.632Z,2.67
2023-02-06T00:29:04.344Z,2.62
2023-02-06T00:31:32.300Z,2.55
2023-02-06T00:34:01.283Z,2.30
2023-02-06T00:36:29.428Z,3.12
2023-02-06T00:38:56.944Z,2.47
2023-02-06T00:41:24.857Z,2.40
2023-02-06T00:43:52.454Z,2.47
2023-02-06T00:46:25.169Z,2.47
2023-02-06T00:48:52.400Z,2.27
2023-02-06T00:51:20.166Z,2.40
2023-02-06T00:53:50.175Z,2.17
2023-02-06T00:56:17.564Z,2.10
2023-02-06T00:58:46.754Z,1.87
2023-02-06T01:01:14.449Z,3.05
2023-02-06T01:03:44.919Z,2.27
2023-02-06T01:06:12.674Z,2.15
2023-02-06T01:08:40.544Z,2.00
2023-02-06T01:11:13.891Z,2.22
2023-02-06T01:13:43.799Z,2.30
2023-02-06T01:16:14.669Z,2.20
2023-02-06T01:18:42.750Z,2.50
2023-02-06T01:21:16.372Z,2.55
2023-02-06T01:23:57.796Z,2.10
2023-02-06T01:26:27.254Z,2.02
2023-02-06T01:28:55.646Z,2.45
2023-02-06T01:31:29.056Z,2.10
2023-02-06T01:34:10.393Z,1.98
2023-02-06T01:36:37.988Z,2.25
2023-02-06T01:39:08.930Z,2.30
2023-02-06T01:41:36.309Z,2.15
2023-02-06T01:44:19.444Z,2.55
2023-02-06T01:46:52.477Z,2.35
2023-02-06T01:49:30.344Z,2.72
2023-02-06T01:52:18.680Z,2.30
2023-02-06T01:54:50.179Z,2.00
2023-02-06T01:57:19.078Z,2.30
2023-02-06T01:59:50.725Z,2.58
2023-02-06T02:02:19.097Z,2.22
2023-02-06T02:04:47.864Z,2.00
2023-02-06T02:07:31.307Z,2.15
2023-02-06T02:09:59.001Z,2.30
2023-02-06T02:12:30.546Z,2.08
2023-02-06T02:14:59.552Z,2.92
2023-02-06T02:18:00.193Z,2.30
2023-02-06T02:20:47.110Z,2.20
2023-02-06T02:23:21.259Z,2.20
2023-02-06T02:25:53.012Z,1.75
2023-02-06T02:28:24.333Z,2.00
2023-02-06T02:31:30.921Z,2.40
2023-02-06T02:34:08.018Z,2.30
2023-02-06T02:36:54.766Z,2.00
2023-02-06T02:39:37.899Z,2.10
2023-02-06T02:42:18.150Z,1.90
2023-02-06T02:44:52.209Z,2.02
2023-02-06T02:47:23.507Z,2.20
2023-02-06T02:49:53.628Z,2.10
2023-02-06T02:52:21.568Z,2.20
2023-02-06T02:54:49.414Z,1.75
2023-02-06T02:57:20.652Z,2.10
2023-02-06T02:59:54.544Z,2.00
2023-02-06T03:02:25.345Z,1.90
2023-02-06T03:05:00.085Z,2.02
2023-02-06T03:07:41.940Z,1.90
2023-02-06T03:10:22.956Z,2.12
2023-02-06T03:12:56.794Z,1.75
2023-02-06T03:15:32.608Z,2.15
2023-02-06T03:18:04.164Z,1.92
2023-02-06T03:20:33.698Z,1.72
2023-02-06T03:23:03.958Z,2.15
2023-02-06T03:25:36.073Z,1.60
2023-02-06T03:28:09.813Z,1.80
2023-02-06T03:30:40.122Z,2.33
2023-02-06T03:33:10.681Z,2.17
2023-02-06T03:35:39.331Z,2.45
2023-02-06T03:38:09.059Z,2.12
2023-02-06T03:40:39.867Z,2.00
2023-02-06T03:43:09.999Z,2.47
2023-02-06T03:45:43.123Z,1.60
2023-02-06T03:48:17.607Z,1.90
2023-02-06T03:53:16.995Z,1.80
2023-02-06T03:55:47.167Z,1.90
2023-02-06T03:58:15.423Z,2.00
2023-02-06T04:00:45.631Z,2.10
2023-02-06T04:03:15.009Z,2.42
2023-02-06T04:05:42.577Z,2.90
2023-02-06T04:08:10.480Z,2.55
2023-02-06T04:10:38.622Z,3.00
2023-02-06T04:13:06.067Z,3.15
2023-02-06T04:15:34.200Z,2.85
2023-02-06T04:18:03.428Z,2.67
2023-02-06T04:20:31.570Z,2.60
2023-02-06T04:22:59.487Z,2.60
2023-02-06T04:25:27.216Z,2.60
2023-02-06T04:27:56.459Z,2.85
2023-02-06T04:30:24.006Z,2.85
2023-02-06T04:32:52.436Z,2.83
2023-02-06T04:35:20.103Z,3.02
2023-02-06T04:37:47.903Z,2.50
2023-02-06T04:40:16.088Z,2.58
2023-02-06T04:42:44.512Z,2.83
2023-02-06T04:45:13.304Z,3.65
2023-02-06T04:47:41.063Z,2.58
2023-02-06T04:50:10.737Z,2.27
2023-02-06T04:52:38.617Z,2.70
2023-02-06T04:55:08.018Z,2.47
2023-02-06T04:57:35.672Z,2.87
2023-02-06T05:00:04.982Z,2.55
2023-02-06T05:02:34.480Z,2.62
2023-02-06T05:05:02.290Z,2.52
2023-02-06T05:07:29.898Z,2.70
2023-02-06T05:09:57.854Z,2.17
2023-02-06T05:12:28.523Z,2.50
2023-02-06T05:14:56.783Z,2.52
2023-02-06T05:17:24.703Z,2.22
2023-02-06T05:19:52.281Z,2.52
2023-02-06T05:22:20.230Z,2.35
2023-02-06T05:24:47.927Z,2.77
2023-02-06T05:27:15.793Z,2.60
2023-02-06T05:29:44.074Z,2.42
2023-02-06T05:32:11.579Z,2.70
2023-02-06T05:34:39.665Z,2.65
2023-02-06T05:37:07.416Z,2.52
2023-02-06T05:39:55.461Z,2.52
2023-02-06T05:42:23.530Z,2.40
2023-02-06T05:44:51.531Z,2.65
2023-02-06T05:47:19.532Z,3.37
2023-02-06T05:49:48.710Z,2.55
2023-02-06T05:52:16.998Z,2.00
2023-02-06T05:54:45.889Z,3.27
2023-02-06T05:57:13.235Z,2.98
2023-02-06T05:59:40.904Z,2.60
2023-02-06T06:02:08.474Z,4.00
2023-02-06T06:04:36.421Z,5.50
2023-02-06T06:07:05.034Z,7.03
2023-02-06T06:09:32.864Z,8.78
2023-02-06T06:12:00.667Z,6.30
2023-02-06T06:14:31.463Z,4.83
2023-02-06T06:16:59.512Z,3.70
2023-02-06T06:19:27.370Z,3.40
2023-02-06T06:21:56.613Z,2.55
2023-02-06T06:24:26.386Z,3.52
2023-02-06T06:26:54.846Z,2.50
2023-02-06T06:29:22.731Z,2.42
2023-02-06T06:31:53.788Z,2.80
2023-02-06T06:34:22.277Z,2.90
2023-02-06T06:36:49.834Z,3.33
2023-02-06T06:39:17.835Z,3.20
2023-02-06T06:41:46.013Z,2.98
2023-02-06T06:44:13.715Z,2.98
2023-02-06T06:46:41.322Z,3.27
2023-02-06T06:49:11.670Z,2.58
2023-02-06T06:51:40.289Z,3.05
2023-02-06T06:54:08.198Z,2.70
2023-02-06T06:56:36.133Z,2.55
2023-02-06T06:59:04.222Z,2.90
2023-02-06T07:01:31.656Z,2.90
2023-02-06T07:04:00.699Z,2.80
2023-02-06T07:06:28.517Z,3.00
2023-02-06T07:08:56.535Z,3.37
2023-02-06T07:11:26.107Z,2.62
2023-02-06T07:13:54.160Z,3.77
2023-02-06T07:16:31.673Z,3.08
2023-02-06T07:19:03.042Z,3.40
2023-02-06T07:21:31.237Z,3.37
2023-02-06T07:24:03.095Z,3.33
2023-02-06T07:26:30.930Z,3.33
2023-02-06T07:28:58.928Z,3.12
2023-02-06T07:31:26.889Z,3.83
2023-02-06T07:33:55.310Z,3.35
2023-02-06T07:36:23.582Z,3.75
2023-02-06T07:38:51.267Z,3.62
2023-02-06T07:41:19.161Z,3.33
2023-02-06T07:43:46.795Z,3.55
2023-02-06T07:46:14.993Z,3.02
2023-02-06T07:48:44.089Z,3.33
2023-02-06T07:51:11.784Z,3.67
2023-02-06T07:53:39.708Z,2.83
2023-02-06T07:56:12.957Z,3.00
2023-02-06T07:58:41.080Z,3.40
2023-02-06T08:01:09.267Z,4.65
2023-02-06T08:03:37.663Z,5.08
2023-02-06T08:06:15.269Z,5.67
2023-02-06T08:08:43.406Z,7.67
2023-02-06T08:11:14.975Z,10.10
2023-02-06T08:13:44.195Z,9.40
2023-02-06T08:16:15.288Z,7.08
2023-02-06T08:18:43.531Z,6.10
2023-02-06T08:21:17.450Z,4.87
2023-02-06T08:23:46.904Z,5.62
2023-02-06T08:26:19.419Z,6.00
2023-02-06T08:28:51.840Z,5.78
2023-02-06T08:31:25.203Z,4.95
2023-02-06T08:33:53.485Z,6.45
2023-02-06T08:36:23.029Z,7.87
2023-02-06T08:38:53.432Z,8.10
2023-02-06T08:41:26.137Z,8.20
2023-02-06T08:43:59.604Z,8.63
2023-02-06T08:46:30.892Z,7.97
2023-02-06T08:49:05.212Z,8.65
2023-02-06T08:51:34.790Z,7.78
2023-02-06T08:54:11.075Z,8.83
2023-02-06T08:56:39.139Z,7.45
2023-02-06T08:59:07.704Z,6.22
2023-02-06T09:01:39.329Z,8.15
2023-02-06T09:04:09.775Z,6.95
2023-02-06T09:06:40.308Z,7.50
2023-02-06T09:09:10.539Z,6.80
2023-02-06T09:11:39.044Z,6.42
2023-02-06T09:14:08.408Z,6.20
2023-02-06T09:16:38.084Z,7.10
2023-02-06T09:19:06.716Z,7.47
2023-02-06T09:21:48.467Z,6.62
2023-02-06T09:24:16.302Z,7.35
2023-02-06T09:26:58.562Z,6.53
2023-02-06T09:29:15.248Z,5.60
2023-02-06T09:31:43.801Z,5.58
2023-02-06T09:34:13.054Z,5.92
2023-02-06T09:36:41.724Z,6.12
2023-02-06T09:39:10.193Z,5.95
2023-02-06T09:41:44.103Z,5.45
2023-02-06T09:44:16.009Z,5.00
2023-02-06T09:47:05.322Z,5.12
2023-02-06T09:49:46.154Z,5.17
2023-02-06T09:52:36.206Z,5.53
2023-02-06T09:55:43.588Z,5.17
2023-02-06T09:58:16.465Z,4.97
2023-02-06T10:00:50.904Z,5.25
2023-02-06T10:06:04.537Z,5.90
2023-02-06T10:08:41.581Z,6.00
2023-02-06T10:11:26.743Z,5.17
2023-02-06T10:14:01.044Z,4.22
2023-02-06T10:16:44.276Z,4.75
2023-02-06T10:19:25.884Z,3.67
2023-02-06T10:22:03.296Z,4.92
2023-02-06T10:24:51.732Z,4.40
2023-02-06T10:27:20.887Z,4.55
2023-02-06T10:29:51.094Z,4.55
2023-02-06T10:32:35.309Z,5.22
2023-02-06T10:35:17.246Z,4.78
2023-02-06T10:38:05.346Z,4.40
2023-02-06T10:40:52.567Z,4.78
2023-02-06T10:43:41.152Z,4.75
2023-02-06T10:46:30.644Z,4.20
2023-02-06T10:49:05.439Z,4.08
2023-02-06T10:54:09.196Z,4.15
2023-02-06T10:56:44.070Z,5.85
2023-02-06T10:59:30.864Z,4.78
2023-02-06T11:02:14.068Z,5.47
2023-02-06T11:05:16.683Z,5.62
2023-02-06T11:07:47.740Z,4.85
2023-02-06T11:10:17.835Z,6.40
2023-02-06T11:12:51.949Z,5.15
2023-02-06T11:15:35.680Z,5.08
2023-02-06T11:18:06.694Z,4.08
2023-02-06T11:20:37.554Z,4.58
2023-02-06T11:23:21.490Z,4.83
2023-02-06T11:25:59.170Z,4.40
2023-02-06T11:28:27.659Z,5.70
2023-02-06T11:31:05.040Z,6.03
2023-02-06T11:33:51.580Z,5.97
2023-02-06T11:36:28.937Z,5.05
2023-02-06T11:39:08.613Z,4.37
2023-02-06T11:41:38.008Z,5.20
2023-02-06T11:44:26.188Z,4.65
2023-02-06T11:46:54.005Z,5.65
2023-02-06T11:49:29.429Z,6.17
2023-02-06T11:52:04.919Z,4.92
2023-02-06T11:54:35.698Z,5.60
2023-02-06T11:57:08.567Z,5.42
2023-02-06T11:59:39.878Z,6.25
2023-02-06T12:02:14.120Z,6.42
2023-02-06T12:04:43.182Z,5.62
2023-02-06T12:07:21.042Z,6.40
2023-02-06T12:09:50.114Z,6.62
2023-02-06T12:12:24.936Z,7.05
2023-02-06T12:15:00.133Z,7.12
2023-02-06T12:17:42.354Z,5.53
2023-02-06T12:20:26.873Z,6.03
2023-02-06T12:23:01.669Z,6.30
2023-02-06T12:25:39.578Z,6.90
2023-02-06T12:28:23.387Z,5.53
2023-02-06T12:31:01.103Z,11.12
2023-02-06T12:33:37.408Z,8.58
2023-02-06T12:36:16.136Z,6.70
2023-02-06T12:38:59.944Z,5.70
2023-02-06T12:41:40.861Z,5.28
2023-02-06T12:44:37.681Z,5.20
2023-02-06T12:47:27.632Z,5.70
2023-02-06T12:53:01.421Z,6.65
2023-02-06T12:57:59.837Z,5.83
2023-02-06T13:01:00.408Z,5.70
2023-02-06T13:03:37.054Z,5.08
2023-02-06T13:06:14.331Z,5.22
2023-02-06T13:08:45.916Z,5.25
2023-02-06T13:11:26.949Z,5.10
2023-02-06T13:14:04.682Z,4.80
2023-02-06T13:16:51.078Z,4.85
2023-02-06T13:19:25.536Z,5.60
2023-02-06T13:22:13.272Z,5.28
2023-02-06T13:24:46.630Z,5.05
2023-02-06T13:27:26.839Z,4.65
2023-02-06T13:29:54.800Z,5.45
2023-02-06T13:32:36.509Z,4.92
2023-02-06T13:35:14.265Z,5.20
2023-02-06T13:37:46.774Z,4.87
2023-02-06T13:40:28.004Z,5.17
2023-02-06T13:43:14.977Z,5.40
2023-02-06T13:45:58.137Z,5.47
2023-02-06T13:49:03.778Z,5.50
2023-02-06T13:51:47.121Z,5.53
2023-02-06T13:54:34.193Z,5.15
2023-02-06T13:57:26.720Z,4.75
2023-02-06T14:00:06.849Z,5.22
2023-02-06T14:02:39.515Z,4.30
2023-02-06T14:05:15.416Z,4.90
2023-02-06T14:08:11.197Z,4.70
2023-02-06T14:11:10.804Z,5.08
2023-02-06T14:13:42.082Z,5.65
2023-02-06T14:16:21.005Z,4.97
2023-02-06T14:18:56.145Z,4.33
2023-02-06T14:21:57.388Z,4.20
2023-02-06T14:24:45.633Z,4.25
2023-02-06T14:27:26.078Z,4.33
2023-02-06T14:30:15.383Z,4.60
2023-02-06T14:32:54.351Z,4.58
2023-02-06T14:35:38.240Z,4.22
2023-02-06T14:38:19.977Z,4.40
2023-02-06T14:40:51.087Z,4.75
2023-02-06T14:43:22.725Z,4.50
2023-02-06T14:46:07.049Z,5.00
2023-02-06T14:48:48.742Z,4.45
2023-02-06T14:51:22.794Z,4.90
2023-02-06T14:53:57.425Z,4.28
2023-02-06T14:58:55.111Z,4.55
2023-02-06T15:01:26.915Z,4.62
2023-02-06T15:03:58.360Z,3.98
2023-02-06T15:06:35.440Z,4.47
2023-02-06T15:09:04.431Z,6.08
2023-02-06T15:11:33.386Z,5.75
2023-02-06T15:14:07.470Z,4.92
2023-02-06T15:16:52.766Z,6.00
2023-02-06T15:19:24.067Z,5.67
2023-02-06T15:21:55.729Z,6.75
2023-02-06T15:24:44.234Z,6.50
2023-02-06T15:27:33.607Z,8.45
2023-02-06T15:30:03.052Z,7.03
2023-02-06T15:32:39.946Z,6.30
2023-02-06T15:35:26.509Z,8.43
2023-02-06T15:37:55.091Z,7.65
2023-02-06T15:40:35.729Z,8.08
2023-02-06T15:43:16.731Z,8.03
2023-02-06T15:45:45.261Z,6.90
2023-02-06T15:48:26.120Z,8.65
2023-02-06T15:51:10.236Z,9.00
2023-02-06T15:53:40.771Z,8.70
2023-02-06T15:56:22.289Z,8.30
2023-02-06T15:59:04.221Z,7.80
2023-02-06T16:01:37.284Z,7.70
2023-02-06T16:04:27.244Z,8.45
2023-02-06T16:07:05.309Z,7.83
2023-02-06T16:09:40.488Z,8.28
2023-02-06T16:12:09.133Z,8.70
2023-02-06T16:14:39.601Z,9.73
2023-02-06T16:17:29.805Z,8.70
2023-02-06T16:20:02.300Z,8.25
2023-02-06T16:22:38.071Z,8.58
2023-02-06T16:25:33.093Z,8.20
2023-02-06T16:28:00.975Z,8.28
2023-02-06T16:30:35.024Z,9.20
2023-02-06T16:33:19.516Z,8.85
2023-02-06T16:35:49.375Z,9.17
2023-02-06T16:38:17.173Z,8.93
2023-02-06T16:40:57.869Z,9.60
2023-02-06T16:43:28.644Z,9.20
2023-02-06T16:46:06.574Z,8.88
2023-02-06T16:48:34.353Z,8.25
2023-02-06T16:51:02.302Z,8.48
2023-02-06T16:53:30.687Z,9.60
2023-02-06T16:55:59.135Z,10.10
2023-02-06T16:58:29.603Z,10.23
2023-02-06T17:00:57.833Z,12.13
2023-02-06T17:03:25.810Z,12.50
2023-02-06T17:05:56.398Z,12.58
2023-02-06T17:08:25.282Z,13.10
2023-02-06T17:10:54.477Z,12.43
2023-02-06T17:13:24.759Z,11.95
2023-02-06T17:15:53.644Z,11.12
2023-02-06T17:18:23.508Z,11.53
2023-02-06T17:20:53.108Z,10.25
2023-02-06T17:23:21.369Z,10.58
2023-02-06T17:25:49.784Z,9.80
2023-02-06T17:28:24.445Z,10.68
2023-02-06T17:33:21.153Z,11.30
2023-02-06T17:35:50.131Z,11.08
2023-02-06T17:38:18.044Z,10.63
2023-02-06T17:40:46.251Z,9.85
2023-02-06T17:43:27.623Z,11.08
2023-02-06T17:45:55.888Z,11.35
2023-02-06T17:48:23.882Z,11.80
2023-02-06T17:50:52.167Z,11.40
2023-02-06T17:53:22.207Z,10.78
2023-02-06T17:55:50.251Z,12.33
2023-02-06T17:58:18.968Z,12.20
2023-02-06T18:00:50.328Z,12.75
2023-02-06T18:03:19.805Z,12.58
2023-02-06T18:05:51.590Z,12.82
2023-02-06T18:08:19.604Z,14.60
2023-02-06T18:10:47.848Z,13.62
2023-02-06T18:13:15.847Z,13.83
2023-02-06T18:15:56.667Z,14.05
2023-02-06T18:18:26.586Z,12.60
2023-02-06T18:20:54.493Z,14.25
2023-02-06T18:23:22.710Z,15.15
2023-02-06T18:25:50.735Z,14.40
2023-02-06T18:28:19.036Z,14.75
2023-02-06T18:30:46.974Z,13.68
2023-02-06T18:33:14.902Z,12.73
2023-02-06T18:35:49.344Z,13.32
2023-02-06T18:40:47.115Z,12.23
2023-02-06T18:43:28.808Z,13.05
2023-02-06T18:45:56.904Z,12.93
2023-02-06T18:48:25.496Z,13.15
2023-02-06T18:50:54.903Z,12.55
2023-02-06T18:53:26.459Z,12.55
2023-02-06T18:55:59.244Z,13.45
2023-02-06T18:58:27.674Z,11.65
2023-02-06T19:00:56.466Z,11.18
2023-02-06T19:03:24.706Z,11.80
2023-02-06T19:05:52.446Z,11.08
2023-02-06T19:08:23.764Z,11.10
2023-02-06T19:10:52.018Z,12.73
2023-02-06T19:13:20.691Z,11.55
2023-02-06T19:15:49.841Z,13.10
2023-02-06T19:18:21.538Z,15.25
2023-02-06T19:20:48.921Z,14.35
2023-02-06T19:23:17.150Z,14.00
2023-02-06T19:25:47.214Z,13.68
2023-02-06T19:28:16.486Z,13.00
2023-02-06T19:30:44.775Z,14.25
2023-02-06T19:33:16.613Z,13.13
2023-02-06T19:35:48.207Z,13.48
2023-02-06T19:38:16.084Z,14.75
2023-02-06T19:40:46.401Z,13.32
2023-02-06T19:43:17.959Z,13.28
2023-02-06T19:45:47.069Z,13.53
2023-02-06T19:48:17.667Z,15.98
2023-02-06T19:50:49.813Z,14.65
2023-02-06T19:53:21.103Z,14.53
2023-02-06T19:55:49.086Z,14.13
2023-02-06T19:58:17.440Z,13.15
2023-02-06T20:01:10.381Z,14.13
2023-02-06T20:03:38.866Z,13.25
2023-02-06T20:06:11.235Z,14.13
2023-02-06T20:08:41.226Z,13.93
2023-02-06T20:11:12.551Z,14.07
2023-02-06T20:13:41.526Z,15.20
2023-02-06T20:16:19.008Z,15.28
2023-02-06T20:19:08.091Z,15.48
2023-02-06T20:21:40.842Z,14.87
2023-02-06T20:24:11.683Z,14.93
2023-02-06T20:26:41.996Z,15.80
2023-02-06T20:29:31.420Z,20.45
2023-02-06T20:32:00.150Z,15.98
2023-02-06T20:34:28.734Z,16.77
2023-02-06T20:36:57.564Z,16.60
2023-02-06T20:39:27.570Z,16.32
2023-02-06T20:41:55.688Z,16.45
2023-02-06T20:44:23.283Z,15.38
2023-02-06T20:46:51.660Z,15.08
2023-02-06T20:49:23.157Z,14.43
2023-02-06T20:51:52.562Z,15.80
2023-02-06T20:54:21.762Z,15.90
2023-02-06T20:56:53.357Z,15.28
2023-02-06T20:59:22.258Z,14.45
2023-02-06T21:01:50.209Z,13.65
2023-02-06T21:04:19.890Z,13.32
2023-02-06T21:06:58.763Z,13.43
2023-02-06T21:09:26.804Z,14.03
2023-02-06T21:11:54.854Z,13.38
2023-02-06T21:14:22.620Z,13.88
2023-02-06T21:16:50.861Z,13.53
2023-02-06T21:19:20.764Z,13.95
2023-02-06T21:21:49.402Z,12.00
2023-02-06T21:24:20.476Z,13.03
2023-02-06T21:26:50.799Z,12.82
2023-02-06T21:29:19.214Z,12.05
2023-02-06T21:31:47.430Z,12.88
2023-02-06T21:34:18.786Z,12.82
2023-02-06T21:36:48.045Z,13.30
2023-02-06T21:39:18.580Z,12.90
2023-02-06T21:41:47.941Z,14.23
2023-02-06T21:44:18.548Z,13.22
2023-02-06T21:46:46.649Z,14.15
2023-02-06T21:49:18.117Z,13.48
2023-02-06T21:51:49.100Z,13.85
2023-02-06T21:54:18.367Z,13.90
2023-02-06T21:56:46.399Z,13.62
2023-02-06T21:59:14.474Z,13.83
2023-02-06T22:01:43.860Z,15.25
2023-02-06T22:04:12.764Z,13.90
2023-02-06T22:06:44.933Z,13.28
2023-02-06T22:09:22.378Z,12.45
2023-02-06T22:11:50.300Z,12.90
2023-02-06T22:14:22.398Z,12.15
2023-02-06T22:16:50.215Z,11.93
2023-02-06T22:19:21.567Z,11.35
2023-02-06T22:24:37.361Z,12.20
2023-02-06T22:27:06.478Z,12.73
2023-02-06T22:29:34.801Z,12.50
2023-02-06T22:32:04.400Z,12.55
2023-02-06T22:34:34.003Z,12.63
2023-02-06T22:37:05.926Z,12.23
2023-02-06T22:39:33.478Z,12.30
2023-02-06T22:42:01.573Z,11.70
2023-02-06T22:44:29.675Z,12.75
2023-02-06T22:46:57.805Z,13.70
2023-02-06T22:49:28.125Z,12.98
2023-02-06T22:51:57.943Z,13.30
2023-02-06T22:54:25.956Z,13.85
2023-02-06T22:56:57.158Z,14.10
2023-02-06T22:59:27.851Z,14.70
2023-02-06T23:01:58.851Z,13.85
2023-02-06T23:04:34.376Z,14.90
2023-02-06T23:07:02.761Z,14.43
2023-02-06T23:09:34.302Z,14.28
2023-02-06T23:12:03.591Z,14.60
2023-02-06T23:14:33.655Z,14.10
2023-02-06T23:17:02.772Z,15.83
2023-02-06T23:19:31.438Z,14.87
2023-02-06T23:22:00.119Z,14.78
2023-02-06T23:24:27.684Z,14.40
2023-02-06T23:26:55.851Z,15.95
2023-02-06T23:29:24.797Z,15.38
2023-02-06T23:31:53.264Z,15.20
2023-02-06T23:34:23.867Z,15.30
2023-02-06T23:36:53.792Z,15.83
2023-02-06T23:39:21.885Z,16.85
2023-02-06T23:41:50.080Z,16.32
2023-02-06T23:44:34.917Z,15.68
2023-02-06T23:47:03.436Z,15.95
2023-02-06T23:49:32.856Z,16.05
2023-02-06T23:52:03.550Z,16.57
2023-02-06T23:54:31.659Z,16.10
2023-02-06T23:57:13.940Z,16.37
2023-02-06T23:59:42.003Z,14.85
